Time;durP1;ratioP1;P1;durP2;ratioP2;P2;SDS_P1;SDS_P2;PMS_P1;PMS_P2;Temp;Humidity;BMP_temperature;BMP_pressure;BME280_temperature;BME280_humidity;BME280_pressure;Samples;Min_cycle;Max_cycle;Signal;HPM_P1;HPM_P2
2024/01/16 00:01:28;;;;;;;8.05;1.77;;;0.40;99.90;;;;;;5052406;28;20090;-89
2024/01/16 00:03:53;;;;;;;4.13;0.75;;;0.40;99.90;;;;;;5052314;28;20044;-89
2024/01/16 00:06:19;;;;;;;0.20;0.20;;;0.40;99.90;;;;;;5050539;28;20044;-89
2024/01/16 00:08:45;;;;;;;1.35;0.38;;;0.40;99.90;;;;;;5066915;28;20040;-90
2024/01/16 00:11:11;;;;;;;0.90;0.50;;;0.30;99.90;;;;;;5049455;28;20123;-88
2024/01/16 00:13:36;;;;;;;3.03;1.05;;;0.30;99.90;;;;;;5051031;28;20586;-89
2024/01/16 00:16:03;;;;;;;1.75;0.43;;;0.30;99.90;;;;;;5065939;28;20043;-89
2024/01/16 00:18:29;;;;;;;3.58;1.02;;;0.30;99.90;;;;;;5066438;28;20029;-89
2024/01/16 00:20:55;;;;;;;2.45;0.80;;;0.30;99.90;;;;;;5049753;28;20037;-89
2024/01/16 00:23:20;;;;;;;1.65;0.65;;;0.30;99.90;;;;;;5068482;28;20426;-89
2024/01/16 00:25:46;;;;;;;1.45;0.60;;;0.30;99.90;;;;;;5050269;28;20052;-89
2024/01/16 00:28:12;;;;;;;8.35;1.17;;;0.30;99.90;;;;;;5067454;28;21028;-89
2024/01/16 00:30:37;;;;;;;0.85;0.35;;;0.30;99.90;;;;;;5070008;28;20293;-88
2024/01/16 00:33:03;;;;;;;6.80;0.63;;;0.30;99.90;;;;;;5051457;28;20032;-89
2024/01/16 00:35:29;;;;;;;3.20;0.95;;;0.30;99.90;;;;;;5049441;28;20415;-88
2024/01/16 00:37:54;;;;;;;5.20;0.68;;;0.40;99.90;;;;;;5051310;28;20428;-89
2024/01/16 00:40:20;;;;;;;0.77;0.40;;;0.40;99.90;;;;;;5050420;28;20043;-89
2024/01/16 00:42:46;;;;;;;3.50;0.93;;;0.40;99.90;;;;;;5052253;28;20124;-88
2024/01/16 00:45:11;;;;;;;1.08;0.35;;;0.40;99.90;;;;;;5069369;28;20040;-89
2024/01/16 00:47:37;;;;;;;1.15;0.22;;;0.40;99.90;;;;;;5069678;28;20041;-88
2024/01/16 00:50:03;;;;;;;5.63;0.57;;;0.50;99.90;;;;;;5067132;28;20037;-88
2024/01/16 00:52:28;;;;;;;0.20;0.20;;;0.40;99.90;;;;;;5066510;28;20039;-89
2024/01/16 00:54:54;;;;;;;3.03;0.85;;;0.50;99.90;;;;;;5067194;28;20025;-89
2024/01/16 00:57:21;;;;;;;1.55;0.30;;;0.50;99.90;;;;;;5067583;28;20040;-87
2024/01/16 00:59:46;;;;;;;1.85;0.25;;;0.50;99.90;;;;;;5071471;28;20043;-88
2024/01/16 01:02:12;;;;;;;2.38;0.50;;;0.50;99.90;;;;;;5056011;28;20119;-88
2024/01/16 01:04:38;;;;;;;2.15;1.17;;;0.50;99.90;;;;;;5071544;28;20649;-88
2024/01/16 01:07:04;;;;;;;0.88;0.65;;;0.50;99.90;;;;;;5070109;28;20040;-88
2024/01/16 01:09:32;;;;;;;2.50;0.75;;;0.50;99.90;;;;;;5052897;28;20048;-88
2024/01/16 01:11:57;;;;;;;3.90;0.80;;;0.50;99.90;;;;;;5072192;28;20040;-89
2024/01/16 01:14:23;;;;;;;1.35;0.50;;;0.50;99.90;;;;;;5055886;28;20039;-88
2024/01/16 01:16:48;;;;;;;3.83;1.65;;;0.50;99.90;;;;;;5070021;28;20041;-88
2024/01/16 01:19:14;;;;;;;3.28;0.60;;;0.40;99.90;;;;;;5071099;28;20036;-88
2024/01/16 01:21:40;;;;;;;0.50;0.17;;;0.40;99.90;;;;;;5071061;28;20033;-88
2024/01/16 01:24:05;;;;;;;0.22;0.22;;;0.40;99.90;;;;;;5069131;28;20029;-88
2024/01/16 01:26:31;;;;;;;2.50;1.02;;;0.40;99.90;;;;;;5054694;28;20564;-88
2024/01/16 01:28:56;;;;;;;0.70;0.32;;;0.40;99.90;;;;;;5057040;28;20526;-88
2024/01/16 01:31:23;;;;;;;1.38;0.40;;;0.30;99.90;;;;;;5054956;28;20041;-88
2024/01/16 01:33:48;;;;;;;4.78;0.60;;;0.30;99.90;;;;;;5070184;28;20044;-88
2024/01/16 01:36:14;;;;;;;1.58;0.85;;;0.30;99.90;;;;;;5072301;28;20094;-89
2024/01/16 01:38:39;;;;;;;3.70;0.63;;;0.20;99.90;;;;;;5074780;28;20060;-88
2024/01/16 01:41:05;;;;;;;3.65;0.55;;;0.20;99.90;;;;;;5056893;28;20392;-88
2024/01/16 01:43:30;;;;;;;3.40;0.57;;;0.20;99.90;;;;;;5054433;28;20154;-88
2024/01/16 01:46:18;;;;;;;5.47;0.68;;;0.20;99.90;;;;;;5080352;28;20037;-88
2024/01/16 01:48:46;;;;;;;1.00;0.30;;;0.10;99.90;;;;;;5072822;28;20044;-88
2024/01/16 01:51:13;;;;;;;1.15;0.50;;;0.10;99.90;;;;;;5069934;28;20032;-89
2024/01/16 01:53:41;;;;;;;0.40;0.30;;;0.10;99.90;;;;;;5071362;28;20542;-88
2024/01/16 01:56:10;;;;;;;0.25;0.20;;;0.00;99.90;;;;;;5071178;28;20051;-89
2024/01/16 01:58:37;;;;;;;3.72;0.98;;;0.00;99.90;;;;;;5071068;28;20480;-89
2024/01/16 02:01:05;;;;;;;6.65;0.98;;;0.00;99.90;;;;;;5053138;28;20036;-88
2024/01/16 02:03:35;;;;;;;2.38;0.50;;;-0.10;99.90;;;;;;5068809;28;20028;-89
2024/01/16 02:06:01;;;;;;;0.20;0.20;;;-0.10;99.90;;;;;;5051822;28;20041;-88
2024/01/16 02:08:26;;;;;;;2.10;0.80;;;-0.10;99.90;;;;;;5068830;28;20043;-89
2024/01/16 02:10:52;;;;;;;3.70;1.65;;;-0.10;99.90;;;;;;5071686;28;20072;-88
2024/01/16 02:13:23;;;;;;;0.10;0.10;;;-0.10;99.90;;;;;;5051928;28;20179;-88
2024/01/16 02:15:49;;;;;;;1.65;0.35;;;-0.10;99.90;;;;;;5070084;28;20085;-88
2024/01/16 02:18:16;;;;;;;0.25;0.20;;;0.00;99.90;;;;;;5068914;28;20044;-88
2024/01/16 02:20:42;;;;;;;1.88;0.45;;;0.00;99.90;;;;;;5068678;28;20032;-88
2024/01/16 02:23:12;;;;;;;2.72;0.57;;;0.10;99.90;;;;;;5069162;28;20066;-88
2024/01/16 02:25:38;;;;;;;2.17;0.57;;;0.10;99.90;;;;;;5070542;28;20100;-89
2024/01/16 02:28:04;;;;;;;1.83;0.30;;;0.10;99.90;;;;;;5055330;28;20507;-89
2024/01/16 02:30:29;;;;;;;3.97;0.70;;;0.10;99.90;;;;;;5070161;28;20044;-88
2024/01/16 02:32:56;;;;;;;1.00;0.65;;;0.00;99.90;;;;;;5053053;28;20123;-88
2024/01/16 02:35:21;;;;;;;1.45;0.32;;;0.00;99.90;;;;;;5068810;28;20040;-89
2024/01/16 02:37:47;;;;;;;2.40;0.73;;;-0.10;99.90;;;;;;5068707;28;20035;-88
2024/01/16 02:40:13;;;;;;;4.35;0.52;;;-0.10;99.90;;;;;;5052568;28;20032;-89
2024/01/16 02:42:38;;;;;;;4.15;0.73;;;-0.10;99.90;;;;;;5073862;28;20044;-89
2024/01/16 02:45:05;;;;;;;1.67;0.63;;;-0.10;99.90;;;;;;5052620;28;20040;-89
2024/01/16 02:47:31;;;;;;;2.25;0.35;;;-0.20;99.90;;;;;;5052267;28;20040;-88
2024/01/16 02:49:57;;;;;;;4.05;0.80;;;-0.20;99.90;;;;;;5068549;28;20040;-89
2024/01/16 02:52:23;;;;;;;3.20;0.45;;;-0.20;99.90;;;;;;5067934;28;20037;-88
2024/01/16 02:54:48;;;;;;;2.25;0.65;;;-0.20;99.90;;;;;;5054014;28;20036;-89
2024/01/16 02:57:14;;;;;;;10.02;0.60;;;-0.20;99.90;;;;;;5072666;28;20025;-89
2024/01/16 02:59:40;;;;;;;2.72;1.00;;;-0.30;99.90;;;;;;5068689;28;20044;-89
2024/01/16 03:02:05;;;;;;;2.17;0.65;;;-0.30;99.90;;;;;;5069496;28;20076;-88
2024/01/16 03:04:31;;;;;;;1.05;0.30;;;-0.30;99.90;;;;;;5050828;28;20043;-88
2024/01/16 03:06:56;;;;;;;2.55;0.57;;;-0.30;99.90;;;;;;5067766;28;20044;-89
2024/01/16 03:09:22;;;;;;;3.40;1.08;;;-0.30;99.90;;;;;;5052387;28;20437;-88
2024/01/16 03:11:48;;;;;;;5.07;1.15;;;-0.20;99.90;;;;;;5055384;28;20118;-88
2024/01/16 03:14:13;;;;;;;6.47;0.75;;;-0.20;99.90;;;;;;5051413;28;20040;-88
2024/01/16 03:16:39;;;;;;;0.20;0.20;;;-0.20;99.90;;;;;;5050292;28;20024;-88
2024/01/16 03:19:05;;;;;;;4.72;0.60;;;-0.20;99.90;;;;;;5050897;28;20040;-88
2024/01/16 03:21:31;;;;;;;0.40;0.40;;;-0.10;99.90;;;;;;5049826;28;20064;-88
2024/01/16 03:23:56;;;;;;;2.42;0.63;;;-0.10;99.90;;;;;;5069110;28;20039;-88
2024/01/16 03:26:22;;;;;;;2.85;0.88;;;0.00;99.90;;;;;;5082977;28;20058;-88
2024/01/16 03:28:47;;;;;;;1.65;0.60;;;0.00;99.90;;;;;;5067988;28;20048;-88
2024/01/16 03:31:14;;;;;;;3.15;1.33;;;0.00;99.90;;;;;;5051952;28;20040;-88
2024/01/16 03:33:41;;;;;;;0.90;0.45;;;-0.10;99.90;;;;;;5068257;28;20028;-88
2024/01/16 03:36:09;;;;;;;0.10;0.10;;;-0.10;99.90;;;;;;5068254;28;20111;-89
2024/01/16 03:38:36;;;;;;;4.10;0.50;;;-0.10;99.90;;;;;;5070261;28;20060;-89
2024/01/16 03:41:03;;;;;;;0.38;0.30;;;-0.20;99.90;;;;;;5051861;28;20071;-88
2024/01/16 03:43:29;;;;;;;0.75;0.20;;;-0.20;99.90;;;;;;5069232;28;20040;-89
2024/01/16 03:45:57;;;;;;;0.28;0.25;;;-0.30;99.90;;;;;;5069174;28;20600;-89
2024/01/16 03:48:23;;;;;;;2.92;0.45;;;-0.30;99.90;;;;;;5050722;28;20033;-89
2024/01/16 03:50:48;;;;;;;6.72;0.60;;;-0.30;99.90;;;;;;5068371;28;20040;-88
2024/01/16 03:53:14;;;;;;;3.03;0.57;;;-0.30;99.90;;;;;;5052430;28;20037;-88
2024/01/16 03:55:40;;;;;;;6.15;0.93;;;-0.30;99.90;;;;;;5053490;28;20796;-88
2024/01/16 03:58:05;;;;;;;3.53;1.00;;;-0.30;99.90;;;;;;5066987;28;20070;-89
2024/01/16 04:00:31;;;;;;;1.65;0.63;;;-0.40;99.90;;;;;;5068584;28;20032;-89
2024/01/16 04:02:57;;;;;;;17.45;1.08;;;-0.30;99.90;;;;;;5050838;28;20032;-89
2024/01/16 04:05:22;;;;;;;3.60;0.70;;;-0.30;99.90;;;;;;5052041;28;20115;-88
2024/01/16 04:07:48;;;;;;;2.80;0.70;;;-0.40;99.90;;;;;;5060572;28;20047;-89
2024/01/16 04:10:14;;;;;;;5.28;1.10;;;-0.30;99.90;;;;;;5072141;28;20040;-88
2024/01/16 04:12:39;;;;;;;3.00;0.47;;;-0.40;99.90;;;;;;5050564;28;20043;-89
2024/01/16 04:15:05;;;;;;;1.83;0.35;;;-0.40;99.90;;;;;;5068984;28;20033;-89
2024/01/16 04:17:31;;;;;;;0.95;0.52;;;-0.40;99.90;;;;;;5067315;28;20086;-88
2024/01/16 04:19:57;;;;;;;3.08;0.40;;;-0.30;99.90;;;;;;5068208;28;20041;-89
2024/01/16 04:22:22;;;;;;;5.38;1.40;;;-0.30;99.90;;;;;;5050258;28;20036;-88
2024/01/16 04:24:48;;;;;;;1.00;0.63;;;-0.30;99.90;;;;;;5070067;28;20415;-88
2024/01/16 04:27:13;;;;;;;5.80;1.08;;;-0.30;99.90;;;;;;5051146;28;20044;-88
2024/01/16 04:29:39;;;;;;;0.82;0.82;;;-0.20;99.90;;;;;;5069245;28;20041;-89
2024/01/16 04:32:05;;;;;;;1.27;0.50;;;-0.20;99.90;;;;;;5067790;28;20028;-88
2024/01/16 04:34:30;;;;;;;4.75;0.60;;;-0.20;99.90;;;;;;5054206;28;20492;-88
2024/01/16 04:36:56;;;;;;;0.47;0.30;;;-0.10;99.90;;;;;;5073705;28;20111;-88
2024/01/16 04:39:24;;;;;;;3.97;0.65;;;-0.10;99.90;;;;;;5072229;28;20033;-88
2024/01/16 04:41:50;;;;;;;0.30;0.30;;;-0.10;99.90;;;;;;5054530;28;20048;-89
2024/01/16 04:44:15;;;;;;;0.35;0.20;;;-0.10;99.90;;;;;;5054833;28;20032;-88
2024/01/16 04:46:41;;;;;;;1.15;0.50;;;0.00;99.90;;;;;;5054309;28;20431;-88
2024/01/16 04:49:07;;;;;;;1.30;0.40;;;0.00;99.90;;;;;;5072484;28;20458;-88
2024/01/16 04:51:32;;;;;;;2.08;0.90;;;0.00;99.90;;;;;;5071669;28;20048;-88
2024/01/16 04:53:58;;;;;;;0.85;0.40;;;0.00;99.90;;;;;;5056500;28;20116;-89
2024/01/16 04:56:23;;;;;;;3.70;0.77;;;0.00;99.90;;;;;;5071452;28;20125;-89
2024/01/16 04:58:49;;;;;;;4.30;0.82;;;0.00;99.90;;;;;;5054950;28;20040;-88
2024/01/16 05:01:14;;;;;;;4.85;0.73;;;0.00;99.90;;;;;;5053609;28;20107;-89
2024/01/16 05:03:40;;;;;;;1.27;0.40;;;0.00;99.90;;;;;;5073042;28;20097;-89
2024/01/16 05:06:13;;;;;;;0.80;0.50;;;0.00;99.90;;;;;;5069746;28;20029;-88
2024/01/16 05:08:39;;;;;;;1.55;0.60;;;0.10;99.90;;;;;;5071996;28;20051;-88
2024/01/16 05:11:05;;;;;;;1.23;0.40;;;0.10;99.90;;;;;;5054184;28;20037;-89
2024/01/16 05:13:30;;;;;;;2.90;0.65;;;0.10;99.90;;;;;;5054601;28;20471;-89
2024/01/16 05:15:56;;;;;;;2.33;0.70;;;0.10;99.90;;;;;;5053301;28;20037;-88
2024/01/16 05:18:21;;;;;;;0.55;0.30;;;0.10;99.90;;;;;;5069775;28;20037;-88
2024/01/16 05:20:47;;;;;;;1.38;0.52;;;0.10;99.90;;;;;;5053020;28;20037;-88
2024/01/16 05:23:12;;;;;;;3.30;0.80;;;0.10;99.90;;;;;;5069684;28;20044;-89
2024/01/16 05:25:38;;;;;;;0.20;0.20;;;0.10;99.90;;;;;;5072907;28;20044;-89
2024/01/16 05:28:04;;;;;;;5.70;0.85;;;0.10;99.90;;;;;;5071050;28;21013;-88
2024/01/16 05:30:30;;;;;;;3.40;1.10;;;0.00;99.90;;;;;;5069172;28;20041;-88
2024/01/16 05:32:55;;;;;;;4.38;1.20;;;0.00;99.90;;;;;;5071186;28;20068;-89
2024/01/16 05:35:21;;;;;;;2.42;0.45;;;0.00;99.90;;;;;;5073361;28;20040;-88
2024/01/16 05:37:47;;;;;;;1.33;0.40;;;0.00;99.90;;;;;;5075016;28;20035;-89
2024/01/16 05:40:13;;;;;;;2.80;0.63;;;0.00;99.90;;;;;;5072173;28;20400;-88
2024/01/16 05:42:38;;;;;;;3.83;0.52;;;-0.10;99.90;;;;;;5071357;28;20047;-87
2024/01/16 05:45:05;;;;;;;3.95;0.77;;;-0.10;99.90;;;;;;5068658;28;20051;-89
2024/01/16 05:47:30;;;;;;;1.00;0.30;;;-0.10;99.90;;;;;;5053979;28;20381;-89
2024/01/16 05:49:56;;;;;;;0.80;0.60;;;-0.10;99.90;;;;;;5054628;28;20040;-89
2024/01/16 05:52:22;;;;;;;1.45;0.30;;;-0.10;99.90;;;;;;5071429;28;20070;-88
2024/01/16 05:54:48;;;;;;;0.68;0.68;;;-0.10;99.90;;;;;;5054474;28;20056;-89
2024/01/16 05:57:14;;;;;;;4.35;0.70;;;-0.10;99.90;;;;;;5052619;28;20534;-89
2024/01/16 05:59:39;;;;;;;1.00;0.40;;;0.00;99.90;;;;;;5069772;28;20039;-89
2024/01/16 06:02:05;;;;;;;0.20;0.20;;;-0.10;99.90;;;;;;5069206;28;20040;-88
2024/01/16 06:04:31;;;;;;;1.70;0.82;;;0.00;99.90;;;;;;5071224;28;20078;-89
2024/01/16 06:06:56;;;;;;;11.75;1.23;;;0.00;99.90;;;;;;5052515;28;20051;-89
2024/01/16 06:09:22;;;;;;;1.65;0.50;;;0.00;99.90;;;;;;5053431;28;20513;-89
2024/01/16 06:11:47;;;;;;;4.03;0.73;;;0.00;99.90;;;;;;5070505;28;20051;-89
2024/01/16 06:14:15;;;;;;;2.72;1.05;;;0.00;99.90;;;;;;5068764;28;20039;-88
2024/01/16 06:16:40;;;;;;;1.02;0.73;;;0.00;99.90;;;;;;5052402;28;20107;-88
2024/01/16 06:19:07;;;;;;;2.38;0.47;;;0.10;99.90;;;;;;5052501;28;20131;-88
2024/01/16 06:21:33;;;;;;;3.70;0.45;;;0.00;99.90;;;;;;5051779;28;20037;-89
2024/01/16 06:23:59;;;;;;;5.78;0.95;;;0.00;99.90;;;;;;5052829;28;20040;-89
2024/01/16 06:26:24;;;;;;;6.35;0.80;;;0.00;99.90;;;;;;5071176;28;20033;-88
2024/01/16 06:28:50;;;;;;;4.50;1.17;;;0.00;99.90;;;;;;5071931;28;20568;-90
2024/01/16 06:31:16;;;;;;;1.13;0.50;;;0.00;99.90;;;;;;5069882;28;20055;-87
2024/01/16 06:33:42;;;;;;;1.88;0.50;;;0.10;99.90;;;;;;5072277;28;20111;-87
2024/01/16 06:36:08;;;;;;;4.20;0.77;;;0.10;99.90;;;;;;5070382;28;20583;-88
2024/01/16 06:38:33;;;;;;;2.45;0.55;;;0.10;99.90;;;;;;5053469;28;20029;-88
2024/01/16 06:40:59;;;;;;;0.60;0.47;;;0.10;99.90;;;;;;5053345;28;20040;-88
2024/01/16 06:43:24;;;;;;;3.70;1.90;;;0.00;99.90;;;;;;5067989;28;20044;-88
2024/01/16 06:45:50;;;;;;;1.13;0.73;;;0.10;99.90;;;;;;5068711;28;20028;-89
2024/01/16 06:48:15;;;;;;;3.28;0.60;;;0.10;99.90;;;;;;5072359;28;20535;-88
2024/01/16 06:50:41;;;;;;;3.00;0.70;;;0.10;99.90;;;;;;5055761;28;20047;-89
2024/01/16 06:53:07;;;;;;;2.03;0.95;;;0.10;99.90;;;;;;5052320;28;20570;-89
2024/01/16 06:55:33;;;;;;;2.50;2.30;;;0.10;99.90;;;;;;5051808;28;20097;-89
2024/01/16 06:57:58;;;;;;;3.30;0.82;;;0.10;99.90;;;;;;5068437;28;20041;-89
2024/01/16 07:00:25;;;;;;;0.98;0.55;;;0.10;99.90;;;;;;5069515;28;20044;-89
2024/01/16 07:02:52;;;;;;;5.40;1.70;;;0.10;99.90;;;;;;5072217;28;20046;-89
2024/01/16 07:05:18;;;;;;;4.03;0.80;;;0.10;99.90;;;;;;5051339;28;20040;-90
2024/01/16 07:07:43;;;;;;;6.28;1.00;;;0.00;99.90;;;;;;5069977;28;20508;-87
2024/01/16 07:10:13;;;;;;;1.90;0.82;;;0.10;99.90;;;;;;5068135;28;20043;-89
2024/01/16 07:12:39;;;;;;;3.03;0.68;;;0.10;99.90;;;;;;5067438;28;20068;-88
2024/01/16 07:15:06;;;;;;;2.28;0.90;;;0.00;99.90;;;;;;5045635;28;20043;-87
2024/01/16 07:17:31;;;;;;;0.75;0.55;;;0.10;99.90;;;;;;5062586;28;20117;-88
2024/01/16 07:19:58;;;;;;;4.55;0.73;;;0.00;99.90;;;;;;5064192;28;20119;-88
2024/01/16 07:22:24;;;;;;;1.60;0.65;;;0.10;99.90;;;;;;5061220;28;20047;-89
2024/01/16 07:24:49;;;;;;;5.78;1.85;;;0.10;99.90;;;;;;5064023;28;20068;-89
2024/01/16 07:27:15;;;;;;;1.77;0.60;;;0.10;99.90;;;;;;5065556;28;20045;-89
2024/01/16 07:29:41;;;;;;;2.55;1.33;;;0.00;99.90;;;;;;5067350;28;20759;-89
2024/01/16 07:32:07;;;;;;;6.25;1.02;;;0.00;99.90;;;;;;5066922;28;20048;-88
2024/01/16 07:34:33;;;;;;;2.90;1.00;;;0.10;99.90;;;;;;5065022;28;20090;-88
2024/01/16 07:36:58;;;;;;;1.88;0.95;;;0.00;99.90;;;;;;5064475;28;20094;-88
2024/01/16 07:39:24;;;;;;;2.00;1.00;;;0.10;99.90;;;;;;5046307;28;20032;-89
2024/01/16 07:41:49;;;;;;;2.25;0.73;;;0.10;99.90;;;;;;5047818;28;20040;-88
2024/01/16 07:44:15;;;;;;;2.15;1.00;;;0.10;99.90;;;;;;5063102;28;20040;-88
2024/01/16 07:46:41;;;;;;;2.83;1.05;;;0.10;99.90;;;;;;5065632;28;20101;-88
2024/01/16 07:49:06;;;;;;;3.20;0.73;;;0.10;99.90;;;;;;5064868;28;20148;-88
2024/01/16 07:51:32;;;;;;;0.82;0.43;;;0.10;99.90;;;;;;5047189;28;20035;-88
2024/01/16 07:54:08;;;;;;;2.35;1.02;;;0.10;99.90;;;;;;5065791;28;20033;-88
2024/01/16 07:56:37;;;;;;;3.88;1.55;;;0.10;99.90;;;;;;5045956;28;20028;-89
2024/01/16 07:59:03;;;;;;;2.47;0.85;;;0.10;99.90;;;;;;5065524;28;20051;-88
2024/01/16 08:01:29;;;;;;;2.78;0.82;;;0.10;99.90;;;;;;5067767;28;20119;-89
2024/01/16 08:03:55;;;;;;;5.28;1.08;;;0.10;99.90;;;;;;5065962;28;20190;-90
2024/01/16 08:06:21;;;;;;;2.35;1.02;;;0.20;99.90;;;;;;5050419;28;20036;-87
2024/01/16 08:08:48;;;;;;;2.47;1.02;;;0.10;99.90;;;;;;5075475;28;20024;-88
2024/01/16 08:11:14;;;;;;;2.78;1.02;;;0.10;99.90;;;;;;5074625;28;20035;-88
2024/01/16 08:13:40;;;;;;;0.50;0.50;;;0.20;99.90;;;;;;5073980;28;20044;-89
2024/01/16 08:16:06;;;;;;;2.20;0.63;;;0.20;99.90;;;;;;5073107;28;20520;-88
2024/01/16 08:18:31;;;;;;;2.92;0.95;;;0.20;99.90;;;;;;5073228;28;20031;-88
2024/01/16 08:20:57;;;;;;;2.13;1.10;;;0.20;99.90;;;;;;5074639;28;20040;-88
2024/01/16 08:23:23;;;;;;;2.55;0.98;;;0.20;99.90;;;;;;5074467;28;20036;-89
2024/01/16 08:25:49;;;;;;;2.33;1.13;;;0.30;99.90;;;;;;5056906;28;20565;-88
2024/01/16 08:28:14;;;;;;;2.40;0.85;;;0.30;99.90;;;;;;5054717;28;20043;-89
2024/01/16 08:30:40;;;;;;;2.15;0.85;;;0.40;99.90;;;;;;5072669;28;20131;-88
2024/01/16 08:33:07;;;;;;;2.80;1.13;;;0.40;99.90;;;;;;5072683;28;20040;-89
2024/01/16 08:35:33;;;;;;;2.30;1.30;;;0.40;99.90;;;;;;5056263;28;20036;-89
2024/01/16 08:37:58;;;;;;;2.80;1.10;;;0.50;99.90;;;;;;5056274;28;20038;-89
2024/01/16 08:40:24;;;;;;;3.97;1.75;;;0.50;99.90;;;;;;5073940;28;20025;-89
2024/01/16 08:42:54;;;;;;;2.63;0.98;;;0.50;99.90;;;;;;5056824;28;20075;-89
2024/01/16 08:45:20;;;;;;;10.48;2.22;;;0.50;99.90;;;;;;5073796;28;20048;-89
2024/01/16 08:47:46;;;;;;;1.65;0.77;;;0.60;99.90;;;;;;5073588;28;20044;-89
2024/01/16 08:50:12;;;;;;;3.72;1.48;;;0.50;99.90;;;;;;5080613;28;20041;-89
2024/01/16 08:52:38;;;;;;;3.85;1.75;;;0.60;99.90;;;;;;5071353;28;20040;-89
2024/01/16 08:55:04;;;;;;;3.65;1.33;;;0.60;99.90;;;;;;5054481;28;20507;-89
2024/01/16 08:57:43;;;;;;;3.40;1.25;;;0.70;99.90;;;;;;5135703;27;20917;-87
2024/01/16 09:00:09;;;;;;;4.28;1.80;;;0.70;99.90;;;;;;5097385;28;20090;-89
2024/01/16 09:02:35;;;;;;;7.90;2.65;;;0.70;99.90;;;;;;5112523;27;20047;-88
2024/01/16 09:05:01;;;;;;;4.50;1.77;;;0.80;99.90;;;;;;5096526;28;20023;-88
2024/01/16 09:07:27;;;;;;;7.88;1.98;;;0.80;99.90;;;;;;5097297;28;20108;-88
2024/01/16 09:09:53;;;;;;;2.88;1.33;;;0.80;99.90;;;;;;5104764;28;20111;-88
2024/01/16 09:12:19;;;;;;;3.28;1.98;;;0.80;99.90;;;;;;5113138;28;20023;-89
2024/01/16 09:14:45;;;;;;;5.68;1.65;;;0.80;99.90;;;;;;5110209;27;20096;-89
2024/01/16 09:17:10;;;;;;;6.80;2.08;;;0.90;99.90;;;;;;5115891;28;20076;-88
2024/01/16 09:19:36;;;;;;;4.22;1.40;;;0.90;99.90;;;;;;5094936;28;20043;-89
2024/01/16 09:22:03;;;;;;;3.97;1.55;;;0.90;99.90;;;;;;5094520;28;20031;-88
2024/01/16 09:24:28;;;;;;;4.03;1.58;;;0.90;99.90;;;;;;5098831;28;20398;-88
2024/01/16 09:26:54;;;;;;;2.95;1.33;;;0.90;99.90;;;;;;5116756;27;20043;-89
2024/01/16 09:29:21;;;;;;;5.57;1.73;;;1.00;99.90;;;;;;5115326;27;20093;-89
2024/01/16 09:31:47;;;;;;;5.35;1.83;;;1.00;99.90;;;;;;5094595;28;20075;-89
2024/01/16 09:34:13;;;;;;;2.63;1.05;;;1.00;99.90;;;;;;5095660;28;20057;-88
2024/01/16 09:36:39;;;;;;;4.63;1.95;;;1.00;99.90;;;;;;5097386;28;20046;-89
2024/01/16 09:39:10;;;;;;;5.03;2.30;;;1.00;99.90;;;;;;5095860;28;20047;-89
2024/01/16 09:41:37;;;;;;;4.68;1.63;;;1.10;99.90;;;;;;5116586;28;20112;-89
2024/01/16 09:44:03;;;;;;;4.28;1.80;;;1.10;99.90;;;;;;5094184;28;20047;-88
2024/01/16 09:46:31;;;;;;;6.95;2.30;;;1.10;99.90;;;;;;5096705;28;20483;-88
2024/01/16 09:48:59;;;;;;;6.47;2.45;;;1.10;99.90;;;;;;5095791;28;20570;-89
2024/01/16 09:51:25;;;;;;;5.07;1.83;;;1.10;99.90;;;;;;5115374;27;20406;-89
2024/01/16 09:53:51;;;;;;;6.43;1.42;;;1.20;99.90;;;;;;5095677;27;20039;-89
2024/01/16 09:56:22;;;;;;;1.67;0.80;;;1.20;99.90;;;;;;5116252;28;20080;-88
2024/01/16 09:58:49;;;;;;;2.65;1.35;;;1.20;99.90;;;;;;5093361;27;20077;-89
2024/01/16 10:01:16;;;;;;;1.83;1.00;;;1.30;99.90;;;;;;5113163;27;20027;-89
2024/01/16 10:03:45;;;;;;;5.90;2.15;;;1.30;99.90;;;;;;5113576;27;20483;-89
2024/01/16 10:06:11;;;;;;;2.05;0.88;;;1.30;99.90;;;;;;5098896;28;20067;-89
2024/01/16 10:08:38;;;;;;;1.40;0.73;;;1.30;99.90;;;;;;5086997;28;20491;-89
2024/01/16 10:11:04;;;;;;;2.17;0.95;;;1.30;99.90;;;;;;5081581;28;20043;-89
2024/01/16 10:13:31;;;;;;;4.93;2.22;;;1.30;99.90;;;;;;5101707;27;20038;-88
2024/01/16 10:15:57;;;;;;;12.38;3.60;;;1.30;99.90;;;;;;5080919;28;20024;-89
2024/01/16 10:18:27;;;;;;;6.68;2.15;;;1.30;99.90;;;;;;5093727;28;20071;-88
2024/01/16 10:20:53;;;;;;;6.50;2.60;;;1.30;99.90;;;;;;5087042;28;20085;-88
2024/01/16 10:23:35;;;;;;;8.82;2.53;;;1.30;99.90;;;;;;5102093;28;20550;-89
2024/01/16 10:26:14;;;;;;;2.88;1.25;;;1.30;99.90;;;;;;5080896;28;20122;-88
2024/01/16 10:28:41;;;;;;;3.35;1.50;;;1.40;99.90;;;;;;5081885;28;20062;-88
2024/01/16 10:31:11;;;;;;;1.10;0.63;;;1.40;99.90;;;;;;5081303;28;20084;-89
2024/01/16 10:33:40;;;;;;;4.90;2.13;;;1.40;99.90;;;;;;5098101;28;20051;-89
2024/01/16 10:36:11;;;;;;;3.75;1.85;;;1.40;99.90;;;;;;5078832;28;20491;-89
2024/01/16 10:38:38;;;;;;;5.25;1.98;;;1.40;99.90;;;;;;5077065;27;20115;-88
2024/01/16 10:41:12;;;;;;;2.90;1.20;;;1.50;99.90;;;;;;5078187;28;20059;-89
2024/01/16 10:43:38;;;;;;;4.60;1.33;;;1.50;99.90;;;;;;5078525;28;20036;-89
2024/01/16 10:46:13;;;;;;;1.63;0.82;;;1.50;99.90;;;;;;5097325;28;20050;-89
2024/01/16 10:48:40;;;;;;;1.33;0.82;;;1.50;99.90;;;;;;5077174;28;20062;-88
2024/01/16 10:51:08;;;;;;;1.95;0.85;;;1.50;99.90;;;;;;5076620;28;20688;-89
2024/01/16 10:53:35;;;;;;;1.50;1.08;;;1.50;99.90;;;;;;5077201;28;20040;-88
2024/01/16 10:56:02;;;;;;;4.03;1.52;;;1.50;99.90;;;;;;5073076;28;20063;-89
2024/01/16 10:58:31;;;;;;;10.90;1.92;;;1.60;99.90;;;;;;5090614;28;20040;-89
2024/01/16 11:01:01;;;;;;;2.53;0.93;;;1.60;99.90;;;;;;5077325;28;20032;-89
2024/01/16 11:03:38;;;;;;;3.45;1.17;;;1.60;99.90;;;;;;5090204;27;20085;-89
2024/01/16 11:06:07;;;;;;;6.90;1.50;;;1.70;99.90;;;;;;5083430;28;20410;-89
2024/01/16 11:08:35;;;;;;;6.10;2.22;;;1.70;99.90;;;;;;5077180;28;20036;-89
2024/01/16 11:11:03;;;;;;;2.17;0.60;;;1.70;99.90;;;;;;5097543;27;20043;-89
2024/01/16 11:13:33;;;;;;;3.03;1.55;;;1.70;99.90;;;;;;5079893;28;20092;-89
2024/01/16 11:16:00;;;;;;;2.45;0.85;;;1.80;99.90;;;;;;5079798;28;20123;-89
2024/01/16 11:18:28;;;;;;;2.05;1.02;;;1.80;99.90;;;;;;5094523;28;20555;-89
2024/01/16 11:20:55;;;;;;;2.80;1.00;;;1.70;99.90;;;;;;5083248;28;20494;-88
2024/01/16 11:23:21;;;;;;;4.68;1.33;;;1.70;99.90;;;;;;5070697;28;20654;-88
2024/01/16 11:25:46;;;;;;;8.65;1.63;;;1.70;99.90;;;;;;5089453;28;20113;-89
2024/01/16 11:28:13;;;;;;;2.80;1.23;;;1.70;99.90;;;;;;5088418;28;20032;-88
2024/01/16 11:30:40;;;;;;;1.45;0.73;;;1.70;99.90;;;;;;5070415;28;20040;-89
2024/01/16 11:33:06;;;;;;;1.35;0.88;;;1.60;99.90;;;;;;5099915;27;20032;-89
2024/01/16 11:35:36;;;;;;;2.38;0.70;;;1.60;99.90;;;;;;5076690;28;20095;-88
2024/01/16 11:38:18;;;;;;;2.75;1.20;;;1.60;99.90;;;;;;5077042;28;20051;-88
2024/01/16 11:40:45;;;;;;;2.50;1.30;;;1.60;99.90;;;;;;5097344;28;20107;-89
2024/01/16 11:43:32;;;;;;;2.08;1.13;;;1.60;99.90;;;;;;5098448;27;20047;-88
2024/01/16 11:46:01;;;;;;;2.15;1.17;;;1.60;99.90;;;;;;5096287;28;20052;-88
2024/01/16 11:48:27;;;;;;;1.20;0.47;;;1.60;99.90;;;;;;5092393;28;20422;-88
2024/01/16 11:50:54;;;;;;;3.83;1.48;;;1.60;99.90;;;;;;5099243;27;20039;-88
2024/01/16 11:53:41;;;;;;;2.17;1.13;;;1.70;99.90;;;;;;5092722;28;20043;-88
2024/01/16 11:56:18;;;;;;;4.47;1.67;;;1.70;99.90;;;;;;5093068;28;20130;-88
2024/01/16 11:59:22;;;;;;;2.55;1.23;;;1.70;99.90;;;;;;5089145;27;20089;-89
2024/01/16 12:01:52;;;;;;;4.10;1.40;;;1.70;99.90;;;;;;5091584;27;20461;-88
2024/01/16 12:04:20;;;;;;;7.05;2.38;;;1.70;99.90;;;;;;5089933;28;20495;-89
2024/01/16 12:06:59;;;;;;;3.88;1.85;;;1.70;99.90;;;;;;5076577;28;20530;-89
2024/01/16 12:09:26;;;;;;;6.07;2.42;;;1.70;99.90;;;;;;5071250;28;20044;-89
2024/01/16 12:12:01;;;;;;;7.05;2.85;;;1.70;99.90;;;;;;5071376;28;20050;-88
2024/01/16 12:14:27;;;;;;;7.80;3.88;;;1.70;99.90;;;;;;5072847;28;20036;-88
2024/01/16 12:17:07;;;;;;;7.03;2.85;;;1.70;99.90;;;;;;5095730;28;20084;-88
2024/01/16 12:19:33;;;;;;;9.20;4.05;;;1.70;99.90;;;;;;5072221;28;20716;-88
2024/01/16 12:21:59;;;;;;;13.38;3.53;;;1.70;99.90;;;;;;5078707;28;20059;-88
2024/01/16 12:24:24;;;;;;;10.63;4.32;;;1.70;99.90;;;;;;5073591;28;20114;-88
2024/01/16 12:26:50;;;;;;;8.02;2.75;;;1.70;99.90;;;;;;5089285;28;20518;-88
2024/01/16 12:29:18;;;;;;;6.97;2.50;;;1.70;99.90;;;;;;5089564;28;20042;-88
2024/01/16 12:31:43;;;;;;;9.52;4.18;;;1.70;99.90;;;;;;5089212;28;20035;-89
2024/01/16 12:34:09;;;;;;;13.15;5.07;;;1.70;99.90;;;;;;5088360;28;20030;-88
2024/01/16 12:36:36;;;;;;;9.77;4.38;;;1.70;99.90;;;;;;5090755;28;20511;-88
2024/01/16 12:39:02;;;;;;;10.93;5.28;;;1.80;99.90;;;;;;5091353;28;20042;-88
2024/01/16 12:41:40;;;;;;;11.63;4.00;;;1.80;99.90;;;;;;5097235;28;20078;-89
2024/01/16 12:44:06;;;;;;;14.65;4.82;;;1.80;99.90;;;;;;5079058;28;20533;-89
2024/01/16 12:46:32;;;;;;;9.45;4.35;;;1.80;99.90;;;;;;5095071;28;20067;-89
2024/01/16 12:49:06;;;;;;;14.00;4.80;;;1.90;99.90;;;;;;5076063;28;20750;-88
2024/01/16 12:51:31;;;;;;;15.43;5.97;;;1.90;99.90;;;;;;5082825;28;20118;-89
2024/01/16 12:54:14;;;;;;;7.43;3.30;;;2.00;99.90;;;;;;5074950;28;20122;-89